sensor_id;sensor_type;location;lat;lon;timestamp;P1;durP1;ratioP1;P2;durP2;ratioP2
81364;SDS011;70821;53.016;9.010;2023-08-20T00:00:56;6.22;;;3.80;;
81364;SDS011;70821;53.016;9.010;2023-08-20T00:03:21;6.83;;;3.70;;
81364;SDS011;70821;53.016;9.010;2023-08-20T00:05:46;5.57;;;3.37;;
81364;SDS011;70821;53.016;9.010;2023-08-20T00:08:11;6.63;;;3.43;;
81364;SDS011;70821;53.016;9.010;2023-08-20T00:10:37;5.55;;;3.10;;
81364;SDS011;70821;53.016;9.010;2023-08-20T00:13:02;7.25;;;3.33;;
81364;SDS011;70821;53.016;9.010;2023-08-20T00:15:27;6.50;;;3.55;;
81364;SDS011;70821;53.016;9.010;2023-08-20T00:17:52;7.90;;;3.35;;
81364;SDS011;70821;53.016;9.010;2023-08-20T00:20:18;8.13;;;3.35;;
81364;SDS011;70821;53.016;9.010;2023-08-20T00:22:43;8.00;;;3.20;;
81364;SDS011;70821;53.016;9.010;2023-08-20T00:25:09;4.95;;;2.78;;
81364;SDS011;70821;53.016;9.010;2023-08-20T00:27:34;5.45;;;2.75;;
81364;SDS011;70821;53.016;9.010;2023-08-20T00:29:59;5.88;;;3.42;;
81364;SDS011;70821;53.016;9.010;2023-08-20T00:32:25;6.85;;;3.15;;
81364;SDS011;70821;53.016;9.010;2023-08-20T00:34:50;5.33;;;2.83;;
81364;SDS011;70821;53.016;9.010;2023-08-20T00:37:15;6.27;;;3.07;;
81364;SDS011;70821;53.016;9.010;2023-08-20T00:39:40;6.37;;;3.13;;
81364;SDS011;70821;53.016;9.010;2023-08-20T00:42:05;5.35;;;2.58;;
81364;SDS011;70821;53.016;9.010;2023-08-20T00:44:31;6.87;;;3.03;;
81364;SDS011;70821;53.016;9.010;2023-08-20T00:46:56;7.28;;;3.20;;
81364;SDS011;70821;53.016;9.010;2023-08-20T00:49:21;6.90;;;2.70;;
81364;SDS011;70821;53.016;9.010;2023-08-20T00:51:47;5.75;;;2.63;;
81364;SDS011;70821;53.016;9.010;2023-08-20T00:54:12;5.30;;;2.80;;
81364;SDS011;70821;53.016;9.010;2023-08-20T00:56:37;6.72;;;2.83;;
81364;SDS011;70821;53.016;9.010;2023-08-20T00:59:03;4.90;;;2.67;;
81364;SDS011;70821;53.016;9.010;2023-08-20T01:01:28;4.38;;;2.60;;
81364;SDS011;70821;53.016;9.010;2023-08-20T01:03:53;5.78;;;2.80;;
81364;SDS011;70821;53.016;9.010;2023-08-20T01:06:25;5.88;;;2.80;;
81364;SDS011;70821;53.016;9.010;2023-08-20T01:08:57;5.05;;;3.17;;
81364;SDS011;70821;53.016;9.010;2023-08-20T01:11:28;5.45;;;3.00;;
81364;SDS011;70821;53.016;9.010;2023-08-20T01:13:54;5.35;;;2.67;;
81364;SDS011;70821;53.016;9.010;2023-08-20T01:16:19;5.00;;;3.15;;
81364;SDS011;70821;53.016;9.010;2023-08-20T01:18:44;6.78;;;2.80;;
81364;SDS011;70821;53.016;9.010;2023-08-20T01:21:30;4.95;;;2.92;;
81364;SDS011;70821;53.016;9.010;2023-08-20T01:29:10;7.38;;;3.10;;
81364;SDS011;70821;53.016;9.010;2023-08-20T01:31:36;7.25;;;3.35;;
81364;SDS011;70821;53.016;9.010;2023-08-20T01:34:02;6.63;;;3.25;;
81364;SDS011;70821;53.016;9.010;2023-08-20T01:36:27;5.00;;;3.10;;
81364;SDS011;70821;53.016;9.010;2023-08-20T01:38:52;6.68;;;3.40;;
81364;SDS011;70821;53.016;9.010;2023-08-20T01:41:17;5.95;;;3.13;;
81364;SDS011;70821;53.016;9.010;2023-08-20T01:43:42;5.55;;;2.88;;
81364;SDS011;70821;53.016;9.010;2023-08-20T01:46:07;6.25;;;3.22;;
81364;SDS011;70821;53.016;9.010;2023-08-20T01:48:32;6.03;;;3.03;;
81364;SDS011;70821;53.016;9.010;2023-08-20T01:50:57;5.38;;;3.42;;
81364;SDS011;70821;53.016;9.010;2023-08-20T01:53:22;5.68;;;3.17;;
81364;SDS011;70821;53.016;9.010;2023-08-20T01:55:48;6.43;;;3.75;;
81364;SDS011;70821;53.016;9.010;2023-08-20T01:58:13;7.47;;;3.60;;
81364;SDS011;70821;53.016;9.010;2023-08-20T02:00:38;5.03;;;3.00;;
81364;SDS011;70821;53.016;9.010;2023-08-20T02:03:03;4.90;;;2.78;;
81364;SDS011;70821;53.016;9.010;2023-08-20T02:05:28;9.85;;;3.70;;
81364;SDS011;70821;53.016;9.010;2023-08-20T02:07:53;5.13;;;3.20;;
81364;SDS011;70821;53.016;9.010;2023-08-20T02:10:18;6.23;;;3.50;;
81364;SDS011;70821;53.016;9.010;2023-08-20T02:12:43;4.70;;;3.22;;
81364;SDS011;70821;53.016;9.010;2023-08-20T02:15:09;6.45;;;3.47;;
81364;SDS011;70821;53.016;9.010;2023-08-20T02:17:34;7.85;;;3.50;;
81364;SDS011;70821;53.016;9.010;2023-08-20T02:19:59;6.55;;;3.55;;
81364;SDS011;70821;53.016;9.010;2023-08-20T02:22:24;6.78;;;3.47;;
81364;SDS011;70821;53.016;9.010;2023-08-20T02:24:49;6.18;;;3.58;;
81364;SDS011;70821;53.016;9.010;2023-08-20T02:27:14;5.38;;;3.35;;
81364;SDS011;70821;53.016;9.010;2023-08-20T02:29:40;6.78;;;3.63;;
81364;SDS011;70821;53.016;9.010;2023-08-20T02:32:05;5.10;;;3.40;;
81364;SDS011;70821;53.016;9.010;2023-08-20T02:34:30;6.75;;;3.58;;
81364;SDS011;70821;53.016;9.010;2023-08-20T02:36:55;6.65;;;3.80;;
81364;SDS011;70821;53.016;9.010;2023-08-20T02:39:20;7.15;;;3.97;;
81364;SDS011;70821;53.016;9.010;2023-08-20T02:41:45;6.32;;;3.80;;
81364;SDS011;70821;53.016;9.010;2023-08-20T02:44:10;6.70;;;3.58;;
81364;SDS011;70821;53.016;9.010;2023-08-20T02:46:35;8.25;;;3.78;;
81364;SDS011;70821;53.016;9.010;2023-08-20T02:49:00;5.05;;;3.40;;
81364;SDS011;70821;53.016;9.010;2023-08-20T02:51:26;6.47;;;3.40;;
81364;SDS011;70821;53.016;9.010;2023-08-20T02:53:51;5.93;;;3.42;;
81364;SDS011;70821;53.016;9.010;2023-08-20T02:56:16;6.00;;;3.55;;
81364;SDS011;70821;53.016;9.010;2023-08-20T02:58:41;5.97;;;3.20;;
81364;SDS011;70821;53.016;9.010;2023-08-20T03:01:06;5.53;;;3.35;;
81364;SDS011;70821;53.016;9.010;2023-08-20T03:03:31;5.28;;;3.40;;
81364;SDS011;70821;53.016;9.010;2023-08-20T03:05:56;6.80;;;3.25;;
81364;SDS011;70821;53.016;9.010;2023-08-20T03:08:21;8.40;;;3.35;;
81364;SDS011;70821;53.016;9.010;2023-08-20T03:10:46;5.40;;;3.07;;
81364;SDS011;70821;53.016;9.010;2023-08-20T03:13:12;5.38;;;3.28;;
81364;SDS011;70821;53.016;9.010;2023-08-20T03:15:37;5.85;;;3.25;;
81364;SDS011;70821;53.016;9.010;2023-08-20T03:18:02;7.53;;;3.30;;
81364;SDS011;70821;53.016;9.010;2023-08-20T03:20:27;4.80;;;3.22;;
81364;SDS011;70821;53.016;9.010;2023-08-20T03:22:52;4.70;;;2.97;;
81364;SDS011;70821;53.016;9.010;2023-08-20T03:25:17;4.38;;;3.00;;
81364;SDS011;70821;53.016;9.010;2023-08-20T03:27:42;4.60;;;2.70;;
81364;SDS011;70821;53.016;9.010;2023-08-20T03:30:07;4.53;;;2.90;;
81364;SDS011;70821;53.016;9.010;2023-08-20T03:32:33;3.63;;;2.30;;
81364;SDS011;70821;53.016;9.010;2023-08-20T03:34:58;4.63;;;2.67;;
81364;SDS011;70821;53.016;9.010;2023-08-20T03:37:23;4.30;;;2.55;;
81364;SDS011;70821;53.016;9.010;2023-08-20T03:39:48;4.53;;;2.38;;
81364;SDS011;70821;53.016;9.010;2023-08-20T03:42:13;6.82;;;2.80;;
81364;SDS011;70821;53.016;9.010;2023-08-20T03:44:38;4.72;;;2.70;;
81364;SDS011;70821;53.016;9.010;2023-08-20T03:47:03;4.13;;;2.30;;
81364;SDS011;70821;53.016;9.010;2023-08-20T03:49:28;5.73;;;2.60;;
81364;SDS011;70821;53.016;9.010;2023-08-20T03:51:54;6.43;;;2.20;;
81364;SDS011;70821;53.016;9.010;2023-08-20T03:54:19;6.40;;;2.42;;
81364;SDS011;70821;53.016;9.010;2023-08-20T03:56:44;5.10;;;1.80;;
81364;SDS011;70821;53.016;9.010;2023-08-20T03:59:09;6.40;;;1.80;;
81364;SDS011;70821;53.016;9.010;2023-08-20T04:01:34;2.58;;;1.92;;
81364;SDS011;70821;53.016;9.010;2023-08-20T04:03:59;4.22;;;2.47;;
81364;SDS011;70821;53.016;9.010;2023-08-20T04:06:24;3.58;;;2.30;;
81364;SDS011;70821;53.016;9.010;2023-08-20T04:08:49;7.93;;;2.00;;
81364;SDS011;70821;53.016;9.010;2023-08-20T04:11:14;7.72;;;2.17;;
81364;SDS011;70821;53.016;9.010;2023-08-20T04:13:40;5.40;;;1.92;;
81364;SDS011;70821;53.016;9.010;2023-08-20T04:16:05;3.50;;;1.77;;
81364;SDS011;70821;53.016;9.010;2023-08-20T04:18:30;8.43;;;2.72;;
81364;SDS011;70821;53.016;9.010;2023-08-20T04:20:55;3.47;;;2.17;;
81364;SDS011;70821;53.016;9.010;2023-08-20T04:23:20;6.20;;;2.67;;
81364;SDS011;70821;53.016;9.010;2023-08-20T04:25:45;4.07;;;2.53;;
81364;SDS011;70821;53.016;9.010;2023-08-20T04:28:12;4.50;;;2.78;;
81364;SDS011;70821;53.016;9.010;2023-08-20T04:30:37;5.53;;;2.80;;
81364;SDS011;70821;53.016;9.010;2023-08-20T04:33:02;5.93;;;3.13;;
81364;SDS011;70821;53.016;9.010;2023-08-20T04:35:27;5.55;;;2.85;;
81364;SDS011;70821;53.016;9.010;2023-08-20T04:37:52;4.47;;;2.70;;
81364;SDS011;70821;53.016;9.010;2023-08-20T04:40:17;5.37;;;2.73;;
81364;SDS011;70821;53.016;9.010;2023-08-20T04:42:43;3.78;;;2.70;;
81364;SDS011;70821;53.016;9.010;2023-08-20T04:45:08;4.80;;;2.58;;
81364;SDS011;70821;53.016;9.010;2023-08-20T04:47:33;5.07;;;2.83;;
81364;SDS011;70821;53.016;9.010;2023-08-20T04:49:58;3.37;;;2.23;;
81364;SDS011;70821;53.016;9.010;2023-08-20T04:52:23;4.00;;;2.25;;
81364;SDS011;70821;53.016;9.010;2023-08-20T04:54:49;3.72;;;2.38;;
81364;SDS011;70821;53.016;9.010;2023-08-20T04:57:14;4.20;;;2.22;;
81364;SDS011;70821;53.016;9.010;2023-08-20T04:59:39;4.25;;;2.20;;
81364;SDS011;70821;53.016;9.010;2023-08-20T05:02:04;6.00;;;3.03;;
81364;SDS011;70821;53.016;9.010;2023-08-20T05:04:29;4.88;;;2.88;;
81364;SDS011;70821;53.016;9.010;2023-08-20T05:06:54;4.55;;;2.90;;
81364;SDS011;70821;53.016;9.010;2023-08-20T05:09:19;7.50;;;2.40;;
81364;SDS011;70821;53.016;9.010;2023-08-20T05:11:44;7.05;;;3.40;;
81364;SDS011;70821;53.016;9.010;2023-08-20T05:14:09;7.65;;;3.58;;
81364;SDS011;70821;53.016;9.010;2023-08-20T05:16:34;6.75;;;3.15;;
81364;SDS011;70821;53.016;9.010;2023-08-20T05:19:00;6.85;;;3.38;;
81364;SDS011;70821;53.016;9.010;2023-08-20T05:21:25;6.63;;;3.20;;
81364;SDS011;70821;53.016;9.010;2023-08-20T05:23:50;6.18;;;3.08;;
81364;SDS011;70821;53.016;9.010;2023-08-20T05:26:15;6.20;;;3.20;;
81364;SDS011;70821;53.016;9.010;2023-08-20T05:28:40;5.55;;;3.13;;
81364;SDS011;70821;53.016;9.010;2023-08-20T05:31:05;7.25;;;3.33;;
81364;SDS011;70821;53.016;9.010;2023-08-20T05:33:30;6.35;;;3.10;;
81364;SDS011;70821;53.016;9.010;2023-08-20T05:35:55;6.80;;;3.45;;
81364;SDS011;70821;53.016;9.010;2023-08-20T05:38:20;5.60;;;3.30;;
81364;SDS011;70821;53.016;9.010;2023-08-20T05:40:45;5.88;;;3.38;;
81364;SDS011;70821;53.016;9.010;2023-08-20T05:43:10;8.05;;;3.42;;
81364;SDS011;70821;53.016;9.010;2023-08-20T05:45:36;6.85;;;2.97;;
81364;SDS011;70821;53.016;9.010;2023-08-20T05:48:01;6.20;;;3.28;;
81364;SDS011;70821;53.016;9.010;2023-08-20T05:50:26;6.72;;;3.20;;
81364;SDS011;70821;53.016;9.010;2023-08-20T05:52:52;7.55;;;3.85;;
81364;SDS011;70821;53.016;9.010;2023-08-20T05:55:17;9.48;;;3.65;;
81364;SDS011;70821;53.016;9.010;2023-08-20T05:57:42;7.03;;;3.42;;
81364;SDS011;70821;53.016;9.010;2023-08-20T06:00:07;7.88;;;3.58;;
81364;SDS011;70821;53.016;9.010;2023-08-20T06:02:32;6.85;;;3.40;;
81364;SDS011;70821;53.016;9.010;2023-08-20T06:04:57;6.38;;;3.17;;
81364;SDS011;70821;53.016;9.010;2023-08-20T06:07:23;6.57;;;3.10;;
81364;SDS011;70821;53.016;9.010;2023-08-20T06:09:48;5.03;;;3.03;;
81364;SDS011;70821;53.016;9.010;2023-08-20T06:12:13;6.20;;;3.33;;
81364;SDS011;70821;53.016;9.010;2023-08-20T06:14:38;6.22;;;2.80;;
81364;SDS011;70821;53.016;9.010;2023-08-20T06:17:03;5.40;;;2.97;;
81364;SDS011;70821;53.016;9.010;2023-08-20T06:19:28;7.93;;;3.47;;
81364;SDS011;70821;53.016;9.010;2023-08-20T06:21:53;7.35;;;3.40;;
81364;SDS011;70821;53.016;9.010;2023-08-20T06:24:18;8.13;;;3.58;;
81364;SDS011;70821;53.016;9.010;2023-08-20T06:26:43;5.93;;;3.00;;
81364;SDS011;70821;53.016;9.010;2023-08-20T06:29:08;8.30;;;3.30;;
81364;SDS011;70821;53.016;9.010;2023-08-20T06:31:34;6.78;;;3.83;;
81364;SDS011;70821;53.016;9.010;2023-08-20T06:33:59;7.65;;;3.30;;
81364;SDS011;70821;53.016;9.010;2023-08-20T06:36:24;7.60;;;3.70;;
81364;SDS011;70821;53.016;9.010;2023-08-20T06:38:49;7.13;;;3.20;;
81364;SDS011;70821;53.016;9.010;2023-08-20T06:41:14;6.05;;;3.17;;
81364;SDS011;70821;53.016;9.010;2023-08-20T06:43:39;8.88;;;4.20;;
81364;SDS011;70821;53.016;9.010;2023-08-20T06:46:04;9.98;;;4.80;;
81364;SDS011;70821;53.016;9.010;2023-08-20T06:48:29;10.02;;;4.50;;
81364;SDS011;70821;53.016;9.010;2023-08-20T06:50:54;10.90;;;4.20;;
81364;SDS011;70821;53.016;9.010;2023-08-20T06:53:19;6.03;;;3.28;;
81364;SDS011;70821;53.016;9.010;2023-08-20T06:55:45;7.40;;;3.47;;
81364;SDS011;70821;53.016;9.010;2023-08-20T06:58:10;7.07;;;3.28;;
81364;SDS011;70821;53.016;9.010;2023-08-20T07:00:35;7.57;;;3.58;;
81364;SDS011;70821;53.016;9.010;2023-08-20T07:03:00;9.63;;;3.70;;
81364;SDS011;70821;53.016;9.010;2023-08-20T07:05:25;7.97;;;3.50;;
81364;SDS011;70821;53.016;9.010;2023-08-20T07:07:50;8.87;;;3.57;;
81364;SDS011;70821;53.016;9.010;2023-08-20T07:10:15;8.05;;;3.72;;
81364;SDS011;70821;53.016;9.010;2023-08-20T07:12:40;11.25;;;4.53;;
81364;SDS011;70821;53.016;9.010;2023-08-20T07:15:06;7.90;;;4.38;;
81364;SDS011;70821;53.016;9.010;2023-08-20T07:17:31;11.02;;;4.32;;
81364;SDS011;70821;53.016;9.010;2023-08-20T07:19:56;6.60;;;3.90;;
81364;SDS011;70821;53.016;9.010;2023-08-20T07:22:21;14.55;;;4.80;;
81364;SDS011;70821;53.016;9.010;2023-08-20T07:24:46;10.35;;;3.30;;
81364;SDS011;70821;53.016;9.010;2023-08-20T07:27:11;7.70;;;2.85;;
81364;SDS011;70821;53.016;9.010;2023-08-20T07:29:36;8.13;;;3.80;;
81364;SDS011;70821;53.016;9.010;2023-08-20T07:32:02;6.93;;;3.78;;
81364;SDS011;70821;53.016;9.010;2023-08-20T07:34:27;9.23;;;3.60;;
81364;SDS011;70821;53.016;9.010;2023-08-20T07:36:52;6.78;;;3.55;;
81364;SDS011;70821;53.016;9.010;2023-08-20T07:39:17;8.35;;;4.15;;
81364;SDS011;70821;53.016;9.010;2023-08-20T07:41:42;10.48;;;3.95;;
81364;SDS011;70821;53.016;9.010;2023-08-20T07:44:07;6.10;;;3.00;;
81364;SDS011;70821;53.016;9.010;2023-08-20T07:46:32;8.00;;;2.85;;
81364;SDS011;70821;53.016;9.010;2023-08-20T07:48:57;6.82;;;2.63;;
81364;SDS011;70821;53.016;9.010;2023-08-20T07:51:22;7.25;;;2.35;;
81364;SDS011;70821;53.016;9.010;2023-08-20T07:53:47;9.70;;;2.40;;
81364;SDS011;70821;53.016;9.010;2023-08-20T07:56:13;7.60;;;2.40;;
81364;SDS011;70821;53.016;9.010;2023-08-20T07:58:38;4.95;;;2.28;;
81364;SDS011;70821;53.016;9.010;2023-08-20T08:01:03;7.82;;;2.20;;
81364;SDS011;70821;53.016;9.010;2023-08-20T08:03:28;9.80;;;2.20;;
81364;SDS011;70821;53.016;9.010;2023-08-20T08:05:53;5.47;;;2.00;;
81364;SDS011;70821;53.016;9.010;2023-08-20T08:08:18;5.13;;;1.95;;
81364;SDS011;70821;53.016;9.010;2023-08-20T08:10:44;4.70;;;1.97;;
81364;SDS011;70821;53.016;9.010;2023-08-20T08:13:09;6.50;;;1.95;;
81364;SDS011;70821;53.016;9.010;2023-08-20T08:15:35;7.38;;;2.35;;
81364;SDS011;70821;53.016;9.010;2023-08-20T08:18:00;8.63;;;2.20;;
81364;SDS011;70821;53.016;9.010;2023-08-20T08:20:25;3.55;;;1.73;;
81364;SDS011;70821;53.016;9.010;2023-08-20T08:22:50;4.78;;;1.92;;
81364;SDS011;70821;53.016;9.010;2023-08-20T08:25:15;5.80;;;2.08;;
81364;SDS011;70821;53.016;9.010;2023-08-20T08:27:40;6.82;;;2.20;;
81364;SDS011;70821;53.016;9.010;2023-08-20T08:30:05;6.05;;;2.22;;
81364;SDS011;70821;53.016;9.010;2023-08-20T08:32:31;4.18;;;1.88;;
81364;SDS011;70821;53.016;9.010;2023-08-20T08:34:56;4.60;;;1.98;;
81364;SDS011;70821;53.016;9.010;2023-08-20T08:37:21;4.80;;;1.80;;
81364;SDS011;70821;53.016;9.010;2023-08-20T08:39:46;5.57;;;1.95;;
81364;SDS011;70821;53.016;9.010;2023-08-20T08:42:11;3.63;;;1.80;;
81364;SDS011;70821;53.016;9.010;2023-08-20T08:44:36;6.40;;;1.95;;
81364;SDS011;70821;53.016;9.010;2023-08-20T08:47:02;8.63;;;3.17;;
81364;SDS011;70821;53.016;9.010;2023-08-20T08:49:27;3.87;;;1.90;;
81364;SDS011;70821;53.016;9.010;2023-08-20T08:51:53;5.78;;;1.90;;
81364;SDS011;70821;53.016;9.010;2023-08-20T08:54:18;4.20;;;1.80;;
81364;SDS011;70821;53.016;9.010;2023-08-20T08:56:44;5.32;;;1.70;;
81364;SDS011;70821;53.016;9.010;2023-08-20T08:59:09;4.68;;;1.80;;
81364;SDS011;70821;53.016;9.010;2023-08-20T09:01:38;4.85;;;1.77;;
81364;SDS011;70821;53.016;9.010;2023-08-20T09:04:03;4.90;;;1.80;;
81364;SDS011;70821;53.016;9.010;2023-08-20T09:06:29;4.18;;;1.77;;
81364;SDS011;70821;53.016;9.010;2023-08-20T09:09:08;4.75;;;1.77;;
81364;SDS011;70821;53.016;9.010;2023-08-20T09:11:34;6.60;;;2.10;;
81364;SDS011;70821;53.016;9.010;2023-08-20T09:13:59;4.78;;;2.10;;
81364;SDS011;70821;53.016;9.010;2023-08-20T09:16:24;6.60;;;2.15;;
81364;SDS011;70821;53.016;9.010;2023-08-20T09:18:54;8.40;;;2.83;;
81364;SDS011;70821;53.016;9.010;2023-08-20T09:21:20;11.15;;;2.78;;
81364;SDS011;70821;53.016;9.010;2023-08-20T09:23:51;13.70;;;3.30;;
81364;SDS011;70821;53.016;9.010;2023-08-20T09:26:16;12.98;;;3.58;;
81364;SDS011;70821;53.016;9.010;2023-08-20T09:28:41;11.13;;;3.53;;
81364;SDS011;70821;53.016;9.010;2023-08-20T09:31:07;11.73;;;3.40;;
81364;SDS011;70821;53.016;9.010;2023-08-20T09:33:32;12.93;;;3.70;;
81364;SDS011;70821;53.016;9.010;2023-08-20T09:35:57;14.30;;;3.85;;
81364;SDS011;70821;53.016;9.010;2023-08-20T09:38:23;12.38;;;3.45;;
81364;SDS011;70821;53.016;9.010;2023-08-20T09:40:48;15.13;;;4.50;;
81364;SDS011;70821;53.016;9.010;2023-08-20T09:43:14;14.25;;;3.92;;
81364;SDS011;70821;53.016;9.010;2023-08-20T09:45:40;9.95;;;3.15;;
81364;SDS011;70821;53.016;9.010;2023-08-20T09:48:06;13.57;;;3.55;;
81364;SDS011;70821;53.016;9.010;2023-08-20T09:50:34;13.93;;;3.90;;
81364;SDS011;70821;53.016;9.010;2023-08-20T09:53:03;10.07;;;3.78;;
81364;SDS011;70821;53.016;9.010;2023-08-20T09:55:32;10.98;;;3.22;;
81364;SDS011;70821;53.016;9.010;2023-08-20T09:57:58;8.50;;;2.78;;
81364;SDS011;70821;53.016;9.010;2023-08-20T10:00:23;11.03;;;3.30;;
81364;SDS011;70821;53.016;9.010;2023-08-20T10:02:48;12.52;;;3.92;;
81364;SDS011;70821;53.016;9.010;2023-08-20T10:05:14;9.68;;;3.30;;
81364;SDS011;70821;53.016;9.010;2023-08-20T10:07:39;11.70;;;3.90;;
81364;SDS011;70821;53.016;9.010;2023-08-20T10:10:05;7.93;;;2.97;;
81364;SDS011;70821;53.016;9.010;2023-08-20T10:12:30;11.48;;;3.08;;
81364;SDS011;70821;53.016;9.010;2023-08-20T10:14:56;11.43;;;3.30;;
81364;SDS011;70821;53.016;9.010;2023-08-20T10:17:21;9.40;;;3.35;;
81364;SDS011;70821;53.016;9.010;2023-08-20T10:19:47;7.63;;;2.90;;
81364;SDS011;70821;53.016;9.010;2023-08-20T10:22:12;7.50;;;2.67;;
81364;SDS011;70821;53.016;9.010;2023-08-20T10:24:40;8.93;;;3.55;;
81364;SDS011;70821;53.016;9.010;2023-08-20T10:27:09;6.22;;;2.80;;
81364;SDS011;70821;53.016;9.010;2023-08-20T10:29:34;8.30;;;3.47;;
81364;SDS011;70821;53.016;9.010;2023-08-20T10:31:59;8.90;;;2.88;;
81364;SDS011;70821;53.016;9.010;2023-08-20T10:34:34;8.55;;;3.30;;
81364;SDS011;70821;53.016;9.010;2023-08-20T10:37:01;7.07;;;3.03;;
81364;SDS011;70821;53.016;9.010;2023-08-20T10:39:26;8.63;;;2.80;;
81364;SDS011;70821;53.016;9.010;2023-08-20T10:42:07;6.78;;;2.78;;
81364;SDS011;70821;53.016;9.010;2023-08-20T10:44:55;8.25;;;2.88;;
81364;SDS011;70821;53.016;9.010;2023-08-20T10:47:17;8.32;;;2.72;;
81364;SDS011;70821;53.016;9.010;2023-08-20T10:49:42;8.10;;;2.85;;
81364;SDS011;70821;53.016;9.010;2023-08-20T10:52:08;7.87;;;2.80;;
81364;SDS011;70821;53.016;9.010;2023-08-20T10:54:33;7.82;;;2.60;;
81364;SDS011;70821;53.016;9.010;2023-08-20T10:56:59;6.30;;;2.58;;
81364;SDS011;70821;53.016;9.010;2023-08-20T10:59:30;6.93;;;2.50;;
81364;SDS011;70821;53.016;9.010;2023-08-20T11:01:55;6.82;;;2.55;;
81364;SDS011;70821;53.016;9.010;2023-08-20T11:04:22;6.00;;;2.50;;
81364;SDS011;70821;53.016;9.010;2023-08-20T11:06:49;6.40;;;2.53;;
81364;SDS011;70821;53.016;9.010;2023-08-20T11:09:15;6.43;;;2.67;;
81364;SDS011;70821;53.016;9.010;2023-08-20T11:11:40;6.88;;;2.22;;
81364;SDS011;70821;53.016;9.010;2023-08-20T11:14:06;6.70;;;2.60;;
81364;SDS011;70821;53.016;9.010;2023-08-20T11:16:32;7.50;;;2.60;;
81364;SDS011;70821;53.016;9.010;2023-08-20T11:18:57;6.10;;;2.53;;
81364;SDS011;70821;53.016;9.010;2023-08-20T11:21:22;6.03;;;2.50;;
81364;SDS011;70821;53.016;9.010;2023-08-20T11:23:47;6.75;;;2.50;;
81364;SDS011;70821;53.016;9.010;2023-08-20T11:26:12;5.63;;;2.17;;
81364;SDS011;70821;53.016;9.010;2023-08-20T11:28:37;6.20;;;2.60;;
81364;SDS011;70821;53.016;9.010;2023-08-20T11:31:02;6.53;;;2.35;;
81364;SDS011;70821;53.016;9.010;2023-08-20T11:33:27;6.10;;;2.60;;
81364;SDS011;70821;53.016;9.010;2023-08-20T11:35:53;7.15;;;2.97;;
81364;SDS011;70821;53.016;9.010;2023-08-20T11:38:19;5.23;;;2.50;;
81364;SDS011;70821;53.016;9.010;2023-08-20T11:40:44;4.90;;;2.40;;
81364;SDS011;70821;53.016;9.010;2023-08-20T11:43:09;6.78;;;2.55;;
81364;SDS011;70821;53.016;9.010;2023-08-20T11:45:43;4.88;;;2.15;;
81364;SDS011;70821;53.016;9.010;2023-08-20T11:48:08;5.10;;;2.28;;
81364;SDS011;70821;53.016;9.010;2023-08-20T11:50:33;5.32;;;2.35;;
81364;SDS011;70821;53.016;9.010;2023-08-20T11:53:00;4.88;;;2.10;;
81364;SDS011;70821;53.016;9.010;2023-08-20T11:55:25;5.43;;;2.30;;
81364;SDS011;70821;53.016;9.010;2023-08-20T11:57:51;4.88;;;1.95;;
81364;SDS011;70821;53.016;9.010;2023-08-20T12:00:23;4.25;;;2.20;;
81364;SDS011;70821;53.016;9.010;2023-08-20T12:02:51;5.55;;;2.42;;
81364;SDS011;70821;53.016;9.010;2023-08-20T12:05:18;5.65;;;2.35;;
81364;SDS011;70821;53.016;9.010;2023-08-20T12:07:43;7.10;;;2.53;;
81364;SDS011;70821;53.016;9.010;2023-08-20T12:10:19;5.32;;;2.30;;
81364;SDS011;70821;53.016;9.010;2023-08-20T12:12:44;4.82;;;2.30;;
81364;SDS011;70821;53.016;9.010;2023-08-20T12:15:09;4.70;;;2.05;;
81364;SDS011;70821;53.016;9.010;2023-08-20T12:17:34;6.78;;;2.42;;
81364;SDS011;70821;53.016;9.010;2023-08-20T12:19:59;4.55;;;2.22;;
81364;SDS011;70821;53.016;9.010;2023-08-20T12:22:24;6.30;;;2.20;;
81364;SDS011;70821;53.016;9.010;2023-08-20T12:24:50;7.13;;;2.47;;
81364;SDS011;70821;53.016;9.010;2023-08-20T12:27:15;4.63;;;2.40;;
81364;SDS011;70821;53.016;9.010;2023-08-20T12:29:40;4.68;;;2.20;;
81364;SDS011;70821;53.016;9.010;2023-08-20T12:32:05;5.80;;;2.40;;
81364;SDS011;70821;53.016;9.010;2023-08-20T12:34:30;4.40;;;2.20;;
81364;SDS011;70821;53.016;9.010;2023-08-20T12:36:55;4.10;;;2.13;;
81364;SDS011;70821;53.016;9.010;2023-08-20T12:39:20;5.10;;;2.10;;
81364;SDS011;70821;53.016;9.010;2023-08-20T12:41:45;6.10;;;2.20;;
81364;SDS011;70821;53.016;9.010;2023-08-20T12:44:10;4.55;;;2.17;;
81364;SDS011;70821;53.016;9.010;2023-08-20T12:46:35;5.00;;;2.45;;
81364;SDS011;70821;53.016;9.010;2023-08-20T12:49:01;4.25;;;2.30;;
81364;SDS011;70821;53.016;9.010;2023-08-20T12:51:26;5.95;;;2.33;;
81364;SDS011;70821;53.016;9.010;2023-08-20T12:53:51;4.18;;;2.00;;
81364;SDS011;70821;53.016;9.010;2023-08-20T12:56:16;5.20;;;2.20;;
81364;SDS011;70821;53.016;9.010;2023-08-20T12:58:41;4.65;;;2.10;;
81364;SDS011;70821;53.016;9.010;2023-08-20T13:01:06;4.30;;;1.88;;
81364;SDS011;70821;53.016;9.010;2023-08-20T13:03:31;3.20;;;2.00;;
81364;SDS011;70821;53.016;9.010;2023-08-20T13:05:57;4.88;;;2.15;;
81364;SDS011;70821;53.016;9.010;2023-08-20T13:08:22;3.97;;;1.83;;
81364;SDS011;70821;53.016;9.010;2023-08-20T13:10:50;4.63;;;2.55;;
81364;SDS011;70821;53.016;9.010;2023-08-20T13:13:16;4.95;;;2.30;;
81364;SDS011;70821;53.016;9.010;2023-08-20T13:15:44;4.50;;;1.98;;
81364;SDS011;70821;53.016;9.010;2023-08-20T13:18:10;4.37;;;1.90;;
81364;SDS011;70821;53.016;9.010;2023-08-20T13:20:35;3.38;;;2.08;;
81364;SDS011;70821;53.016;9.010;2023-08-20T13:23:00;4.72;;;2.10;;
81364;SDS011;70821;53.016;9.010;2023-08-20T13:25:25;4.88;;;2.00;;
81364;SDS011;70821;53.016;9.010;2023-08-20T13:27:50;3.50;;;1.80;;
81364;SDS011;70821;53.016;9.010;2023-08-20T13:30:15;4.40;;;2.05;;
81364;SDS011;70821;53.016;9.010;2023-08-20T13:32:40;3.47;;;1.90;;
81364;SDS011;70821;53.016;9.010;2023-08-20T13:35:05;4.70;;;2.20;;
81364;SDS011;70821;53.016;9.010;2023-08-20T13:37:31;4.43;;;1.70;;
81364;SDS011;70821;53.016;9.010;2023-08-20T13:39:56;2.85;;;1.77;;
81364;SDS011;70821;53.016;9.010;2023-08-20T13:42:22;4.30;;;2.00;;
81364;SDS011;70821;53.016;9.010;2023-08-20T13:44:47;5.05;;;2.03;;
81364;SDS011;70821;53.016;9.010;2023-08-20T13:47:12;4.32;;;2.08;;
81364;SDS011;70821;53.016;9.010;2023-08-20T13:49:37;5.97;;;2.85;;
81364;SDS011;70821;53.016;9.010;2023-08-20T13:52:02;4.65;;;1.92;;
81364;SDS011;70821;53.016;9.010;2023-08-20T13:54:27;3.80;;;2.20;;
81364;SDS011;70821;53.016;9.010;2023-08-20T13:56:52;3.47;;;1.90;;
81364;SDS011;70821;53.016;9.010;2023-08-20T13:59:17;2.78;;;1.90;;
81364;SDS011;70821;53.016;9.010;2023-08-20T14:01:42;2.55;;;1.77;;
81364;SDS011;70821;53.016;9.010;2023-08-20T14:04:07;2.80;;;1.70;;
81364;SDS011;70821;53.016;9.010;2023-08-20T14:06:32;4.13;;;1.92;;
81364;SDS011;70821;53.016;9.010;2023-08-20T14:08:58;3.47;;;2.13;;
81364;SDS011;70821;53.016;9.010;2023-08-20T14:11:23;3.13;;;1.90;;
81364;SDS011;70821;53.016;9.010;2023-08-20T14:13:48;3.60;;;1.83;;
81364;SDS011;70821;53.016;9.010;2023-08-20T14:16:13;3.60;;;2.00;;
81364;SDS011;70821;53.016;9.010;2023-08-20T14:18:38;5.35;;;2.10;;
81364;SDS011;70821;53.016;9.010;2023-08-20T14:21:03;3.70;;;2.15;;
81364;SDS011;70821;53.016;9.010;2023-08-20T14:23:28;4.05;;;1.90;;
81364;SDS011;70821;53.016;9.010;2023-08-20T14:25:53;4.72;;;2.00;;
81364;SDS011;70821;53.016;9.010;2023-08-20T14:28:18;3.53;;;2.03;;
81364;SDS011;70821;53.016;9.010;2023-08-20T14:30:44;3.28;;;1.90;;
81364;SDS011;70821;53.016;9.010;2023-08-20T14:33:09;4.72;;;2.15;;
81364;SDS011;70821;53.016;9.010;2023-08-20T14:35:34;3.42;;;2.03;;
81364;SDS011;70821;53.016;9.010;2023-08-20T14:37:59;3.00;;;1.80;;
81364;SDS011;70821;53.016;9.010;2023-08-20T14:40:24;4.15;;;2.13;;